sensor_id;sensor_type;location;lat;lon;timestamp;P1;durP1;ratioP1;P2;durP2;ratioP2
13269;SDS011;6703;51.994;7.570;2023-06-22T00:00:25;22.45;;;8.88;;
13269;SDS011;6703;51.994;7.570;2023-06-22T00:02:55;18.63;;;8.40;;
13269;SDS011;6703;51.994;7.570;2023-06-22T00:05:23;16.95;;;8.88;;
13269;SDS011;6703;51.994;7.570;2023-06-22T00:07:50;17.90;;;9.63;;
13269;SDS011;6703;51.994;7.570;2023-06-22T00:10:18;15.83;;;8.97;;
13269;SDS011;6703;51.994;7.570;2023-06-22T00:12:46;13.25;;;8.60;;
13269;SDS011;6703;51.994;7.570;2023-06-22T00:15:14;16.98;;;7.78;;
13269;SDS011;6703;51.994;7.570;2023-06-22T00:17:41;18.20;;;8.20;;
13269;SDS011;6703;51.994;7.570;2023-06-22T00:20:11;17.02;;;8.93;;
13269;SDS011;6703;51.994;7.570;2023-06-22T00:22:40;18.05;;;9.10;;
13269;SDS011;6703;51.994;7.570;2023-06-22T00:25:09;16.00;;;8.98;;
13269;SDS011;6703;51.994;7.570;2023-06-22T00:27:37;15.15;;;8.80;;
13269;SDS011;6703;51.994;7.570;2023-06-22T00:30:05;14.70;;;8.13;;
13269;SDS011;6703;51.994;7.570;2023-06-22T00:32:34;15.90;;;8.67;;
13269;SDS011;6703;51.994;7.570;2023-06-22T00:35:02;18.13;;;9.40;;
13269;SDS011;6703;51.994;7.570;2023-06-22T00:37:32;15.63;;;9.67;;
13269;SDS011;6703;51.994;7.570;2023-06-22T00:40:13;18.50;;;10.25;;
13269;SDS011;6703;51.994;7.570;2023-06-22T00:42:43;22.85;;;9.90;;
13269;SDS011;6703;51.994;7.570;2023-06-22T00:45:11;18.20;;;8.80;;
13269;SDS011;6703;51.994;7.570;2023-06-22T00:47:39;16.67;;;8.60;;
13269;SDS011;6703;51.994;7.570;2023-06-22T00:50:10;18.48;;;8.82;;
13269;SDS011;6703;51.994;7.570;2023-06-22T00:52:46;16.63;;;9.27;;
13269;SDS011;6703;51.994;7.570;2023-06-22T00:55:14;18.52;;;9.82;;
13269;SDS011;6703;51.994;7.570;2023-06-22T00:57:44;16.70;;;9.50;;
13269;SDS011;6703;51.994;7.570;2023-06-22T01:00:13;19.55;;;9.55;;
13269;SDS011;6703;51.994;7.570;2023-06-22T01:02:41;22.13;;;10.95;;
13269;SDS011;6703;51.994;7.570;2023-06-22T01:05:12;29.45;;;11.30;;
13269;SDS011;6703;51.994;7.570;2023-06-22T01:07:42;21.35;;;11.18;;
13269;SDS011;6703;51.994;7.570;2023-06-22T01:10:16;22.53;;;10.57;;
13269;SDS011;6703;51.994;7.570;2023-06-22T01:12:48;22.10;;;10.57;;
13269;SDS011;6703;51.994;7.570;2023-06-22T01:15:28;19.17;;;8.23;;
13269;SDS011;6703;51.994;7.570;2023-06-22T01:17:57;19.57;;;10.17;;
13269;SDS011;6703;51.994;7.570;2023-06-22T01:20:26;21.17;;;10.77;;
13269;SDS011;6703;51.994;7.570;2023-06-22T01:23:02;21.77;;;10.43;;
13269;SDS011;6703;51.994;7.570;2023-06-22T01:25:36;16.23;;;8.18;;
13269;SDS011;6703;51.994;7.570;2023-06-22T01:28:17;17.20;;;8.20;;
13269;SDS011;6703;51.994;7.570;2023-06-22T01:30:52;19.70;;;9.68;;
13269;SDS011;6703;51.994;7.570;2023-06-22T01:33:33;17.75;;;10.48;;
13269;SDS011;6703;51.994;7.570;2023-06-22T01:36:02;24.40;;;12.00;;
13269;SDS011;6703;51.994;7.570;2023-06-22T01:38:30;26.15;;;11.68;;
13269;SDS011;6703;51.994;7.570;2023-06-22T01:40:58;27.70;;;11.93;;
13269;SDS011;6703;51.994;7.570;2023-06-22T01:43:27;22.27;;;9.63;;
13269;SDS011;6703;51.994;7.570;2023-06-22T01:45:57;20.30;;;9.77;;
13269;SDS011;6703;51.994;7.570;2023-06-22T01:48:26;21.77;;;11.32;;
13269;SDS011;6703;51.994;7.570;2023-06-22T01:50:55;21.45;;;10.77;;
13269;SDS011;6703;51.994;7.570;2023-06-22T01:53:23;18.35;;;10.18;;
13269;SDS011;6703;51.994;7.570;2023-06-22T01:55:50;19.95;;;9.57;;
13269;SDS011;6703;51.994;7.570;2023-06-22T01:58:18;15.90;;;7.30;;
13269;SDS011;6703;51.994;7.570;2023-06-22T02:00:48;20.20;;;9.23;;
13269;SDS011;6703;51.994;7.570;2023-06-22T02:03:21;19.50;;;8.65;;
13269;SDS011;6703;51.994;7.570;2023-06-22T02:05:52;15.40;;;8.68;;
13269;SDS011;6703;51.994;7.570;2023-06-22T02:08:24;19.40;;;9.13;;
13269;SDS011;6703;51.994;7.570;2023-06-22T02:10:52;16.48;;;8.63;;
13269;SDS011;6703;51.994;7.570;2023-06-22T02:13:23;19.02;;;8.77;;
13269;SDS011;6703;51.994;7.570;2023-06-22T02:15:51;18.30;;;9.73;;
13269;SDS011;6703;51.994;7.570;2023-06-22T02:18:21;22.77;;;10.27;;
13269;SDS011;6703;51.994;7.570;2023-06-22T02:20:49;18.60;;;10.10;;
13269;SDS011;6703;51.994;7.570;2023-06-22T02:23:17;18.63;;;8.80;;
13269;SDS011;6703;51.994;7.570;2023-06-22T02:25:44;21.58;;;9.65;;
13269;SDS011;6703;51.994;7.570;2023-06-22T02:28:12;22.80;;;9.77;;
13269;SDS011;6703;51.994;7.570;2023-06-22T02:30:40;18.33;;;9.60;;
13269;SDS011;6703;51.994;7.570;2023-06-22T02:33:08;25.95;;;10.18;;
13269;SDS011;6703;51.994;7.570;2023-06-22T02:35:37;22.23;;;10.70;;
13269;SDS011;6703;51.994;7.570;2023-06-22T02:38:06;23.43;;;9.73;;
13269;SDS011;6703;51.994;7.570;2023-06-22T02:40:34;20.55;;;10.52;;
13269;SDS011;6703;51.994;7.570;2023-06-22T02:43:02;20.90;;;10.73;;
13269;SDS011;6703;51.994;7.570;2023-06-22T02:45:29;21.47;;;10.43;;
13269;SDS011;6703;51.994;7.570;2023-06-22T02:47:57;17.63;;;8.93;;
13269;SDS011;6703;51.994;7.570;2023-06-22T02:50:25;23.20;;;11.13;;
13269;SDS011;6703;51.994;7.570;2023-06-22T02:52:55;19.97;;;9.67;;
13269;SDS011;6703;51.994;7.570;2023-06-22T02:55:22;21.25;;;10.57;;
13269;SDS011;6703;51.994;7.570;2023-06-22T02:57:50;18.92;;;9.82;;
13269;SDS011;6703;51.994;7.570;2023-06-22T03:00:19;22.95;;;9.30;;
13269;SDS011;6703;51.994;7.570;2023-06-22T03:02:48;22.38;;;8.65;;
13269;SDS011;6703;51.994;7.570;2023-06-22T03:05:16;23.58;;;9.90;;
13269;SDS011;6703;51.994;7.570;2023-06-22T03:07:45;27.73;;;9.73;;
13269;SDS011;6703;51.994;7.570;2023-06-22T03:10:14;19.90;;;9.32;;
13269;SDS011;6703;51.994;7.570;2023-06-22T03:12:42;21.85;;;9.98;;
13269;SDS011;6703;51.994;7.570;2023-06-22T03:15:11;21.45;;;9.95;;
13269;SDS011;6703;51.994;7.570;2023-06-22T03:17:39;18.47;;;9.73;;
13269;SDS011;6703;51.994;7.570;2023-06-22T03:20:08;22.67;;;10.35;;
13269;SDS011;6703;51.994;7.570;2023-06-22T03:22:38;18.60;;;9.23;;
13269;SDS011;6703;51.994;7.570;2023-06-22T03:25:07;28.42;;;10.88;;
13269;SDS011;6703;51.994;7.570;2023-06-22T03:27:41;20.33;;;9.90;;
13269;SDS011;6703;51.994;7.570;2023-06-22T03:30:10;17.73;;;9.40;;
13269;SDS011;6703;51.994;7.570;2023-06-22T03:32:38;22.17;;;9.40;;
13269;SDS011;6703;51.994;7.570;2023-06-22T03:35:06;22.17;;;10.88;;
13269;SDS011;6703;51.994;7.570;2023-06-22T03:37:34;26.02;;;12.02;;
13269;SDS011;6703;51.994;7.570;2023-06-22T03:40:03;22.60;;;11.07;;
13269;SDS011;6703;51.994;7.570;2023-06-22T03:42:33;19.83;;;10.75;;
13269;SDS011;6703;51.994;7.570;2023-06-22T03:45:02;25.08;;;9.75;;
13269;SDS011;6703;51.994;7.570;2023-06-22T03:47:30;24.13;;;9.88;;
13269;SDS011;6703;51.994;7.570;2023-06-22T03:49:59;26.67;;;9.70;;
13269;SDS011;6703;51.994;7.570;2023-06-22T03:52:27;20.15;;;8.57;;
13269;SDS011;6703;51.994;7.570;2023-06-22T03:54:54;19.02;;;8.98;;
13269;SDS011;6703;51.994;7.570;2023-06-22T03:57:22;16.00;;;8.68;;
13269;SDS011;6703;51.994;7.570;2023-06-22T03:59:50;20.85;;;8.88;;
13269;SDS011;6703;51.994;7.570;2023-06-22T04:02:19;23.63;;;9.30;;
13269;SDS011;6703;51.994;7.570;2023-06-22T04:04:47;22.98;;;9.10;;
13269;SDS011;6703;51.994;7.570;2023-06-22T04:07:15;19.88;;;9.15;;
13269;SDS011;6703;51.994;7.570;2023-06-22T04:09:44;19.27;;;7.95;;
13269;SDS011;6703;51.994;7.570;2023-06-22T04:12:11;15.60;;;8.17;;
13269;SDS011;6703;51.994;7.570;2023-06-22T04:14:39;21.05;;;8.82;;
13269;SDS011;6703;51.994;7.570;2023-06-22T04:17:07;23.33;;;10.13;;
13269;SDS011;6703;51.994;7.570;2023-06-22T04:19:36;22.42;;;10.00;;
13269;SDS011;6703;51.994;7.570;2023-06-22T04:22:04;23.33;;;10.30;;
13269;SDS011;6703;51.994;7.570;2023-06-22T04:24:33;21.95;;;9.25;;
13269;SDS011;6703;51.994;7.570;2023-06-22T04:27:01;18.45;;;9.52;;
13269;SDS011;6703;51.994;7.570;2023-06-22T04:29:29;21.48;;;9.73;;
13269;SDS011;6703;51.994;7.570;2023-06-22T04:31:57;17.20;;;8.83;;
13269;SDS011;6703;51.994;7.570;2023-06-22T04:34:29;18.58;;;9.88;;
13269;SDS011;6703;51.994;7.570;2023-06-22T04:39:32;23.30;;;8.98;;
13269;SDS011;6703;51.994;7.570;2023-06-22T04:42:02;19.10;;;9.70;;
13269;SDS011;6703;51.994;7.570;2023-06-22T04:44:30;21.30;;;9.27;;
13269;SDS011;6703;51.994;7.570;2023-06-22T04:46:58;20.85;;;9.10;;
13269;SDS011;6703;51.994;7.570;2023-06-22T04:49:29;19.47;;;9.37;;
13269;SDS011;6703;51.994;7.570;2023-06-22T04:52:01;20.88;;;10.18;;
13269;SDS011;6703;51.994;7.570;2023-06-22T04:54:32;21.30;;;10.07;;
13269;SDS011;6703;51.994;7.570;2023-06-22T04:57:00;24.63;;;9.02;;
13269;SDS011;6703;51.994;7.570;2023-06-22T04:59:29;22.83;;;10.00;;
13269;SDS011;6703;51.994;7.570;2023-06-22T05:01:58;17.52;;;9.38;;
13269;SDS011;6703;51.994;7.570;2023-06-22T05:04:27;17.42;;;8.80;;
13269;SDS011;6703;51.994;7.570;2023-06-22T05:07:00;17.00;;;8.50;;
13269;SDS011;6703;51.994;7.570;2023-06-22T05:09:31;16.35;;;8.43;;
13269;SDS011;6703;51.994;7.570;2023-06-22T05:12:01;19.85;;;8.73;;
13269;SDS011;6703;51.994;7.570;2023-06-22T05:14:33;18.63;;;8.48;;
13269;SDS011;6703;51.994;7.570;2023-06-22T05:17:02;18.25;;;9.07;;
13269;SDS011;6703;51.994;7.570;2023-06-22T05:19:41;17.33;;;8.20;;
13269;SDS011;6703;51.994;7.570;2023-06-22T05:22:11;16.85;;;8.18;;
13269;SDS011;6703;51.994;7.570;2023-06-22T05:24:41;14.32;;;8.05;;
13269;SDS011;6703;51.994;7.570;2023-06-22T05:27:08;15.43;;;7.68;;
13269;SDS011;6703;51.994;7.570;2023-06-22T05:29:36;17.53;;;7.80;;
13269;SDS011;6703;51.994;7.570;2023-06-22T05:32:05;15.95;;;7.88;;
13269;SDS011;6703;51.994;7.570;2023-06-22T05:34:33;13.00;;;7.60;;
13269;SDS011;6703;51.994;7.570;2023-06-22T05:37:01;16.88;;;8.25;;
13269;SDS011;6703;51.994;7.570;2023-06-22T05:39:29;12.82;;;7.85;;
13269;SDS011;6703;51.994;7.570;2023-06-22T05:41:58;16.73;;;7.88;;
13269;SDS011;6703;51.994;7.570;2023-06-22T05:44:26;17.55;;;7.50;;
13269;SDS011;6703;51.994;7.570;2023-06-22T05:46:55;14.50;;;7.15;;
13269;SDS011;6703;51.994;7.570;2023-06-22T05:49:23;13.00;;;7.28;;
13269;SDS011;6703;51.994;7.570;2023-06-22T05:51:55;19.15;;;7.70;;
13269;SDS011;6703;51.994;7.570;2023-06-22T05:54:24;13.10;;;6.95;;
13269;SDS011;6703;51.994;7.570;2023-06-22T05:56:59;13.75;;;7.00;;
13269;SDS011;6703;51.994;7.570;2023-06-22T05:59:27;14.63;;;6.88;;
13269;SDS011;6703;51.994;7.570;2023-06-22T06:01:55;13.77;;;6.72;;
13269;SDS011;6703;51.994;7.570;2023-06-22T06:04:23;14.02;;;6.93;;
13269;SDS011;6703;51.994;7.570;2023-06-22T06:06:52;13.35;;;6.95;;
13269;SDS011;6703;51.994;7.570;2023-06-22T06:09:20;12.27;;;6.63;;
13269;SDS011;6703;51.994;7.570;2023-06-22T06:11:47;14.55;;;6.45;;
13269;SDS011;6703;51.994;7.570;2023-06-22T06:14:16;12.23;;;6.47;;
13269;SDS011;6703;51.994;7.570;2023-06-22T06:16:44;11.35;;;5.93;;
13269;SDS011;6703;51.994;7.570;2023-06-22T06:19:12;11.73;;;5.88;;
13269;SDS011;6703;51.994;7.570;2023-06-22T06:21:40;9.38;;;5.90;;
13269;SDS011;6703;51.994;7.570;2023-06-22T06:24:08;11.70;;;6.20;;
13269;SDS011;6703;51.994;7.570;2023-06-22T06:26:36;10.50;;;5.85;;
13269;SDS011;6703;51.994;7.570;2023-06-22T06:29:06;9.55;;;5.32;;
13269;SDS011;6703;51.994;7.570;2023-06-22T06:31:35;12.85;;;5.82;;
13269;SDS011;6703;51.994;7.570;2023-06-22T06:34:03;11.60;;;5.72;;
13269;SDS011;6703;51.994;7.570;2023-06-22T06:36:31;11.00;;;5.10;;
13269;SDS011;6703;51.994;7.570;2023-06-22T06:41:44;11.73;;;5.30;;
13269;SDS011;6703;51.994;7.570;2023-06-22T06:44:12;10.85;;;5.68;;
13269;SDS011;6703;51.994;7.570;2023-06-22T06:46:41;11.15;;;5.38;;
13269;SDS011;6703;51.994;7.570;2023-06-22T06:49:09;10.97;;;5.43;;
13269;SDS011;6703;51.994;7.570;2023-06-22T06:51:37;11.73;;;5.53;;
13269;SDS011;6703;51.994;7.570;2023-06-22T06:54:04;10.68;;;4.97;;
13269;SDS011;6703;51.994;7.570;2023-06-22T06:56:33;11.75;;;5.25;;
13269;SDS011;6703;51.994;7.570;2023-06-22T06:59:00;9.73;;;5.43;;
13269;SDS011;6703;51.994;7.570;2023-06-22T07:01:28;9.53;;;5.37;;
13269;SDS011;6703;51.994;7.570;2023-06-22T07:04:01;11.20;;;4.75;;
13269;SDS011;6703;51.994;7.570;2023-06-22T07:06:29;13.05;;;5.30;;
13269;SDS011;6703;51.994;7.570;2023-06-22T07:08:59;8.15;;;5.35;;
13269;SDS011;6703;51.994;7.570;2023-06-22T07:11:27;10.83;;;5.20;;
13269;SDS011;6703;51.994;7.570;2023-06-22T07:13:55;10.00;;;5.10;;
13269;SDS011;6703;51.994;7.570;2023-06-22T07:16:23;11.17;;;5.17;;
13269;SDS011;6703;51.994;7.570;2023-06-22T07:18:51;12.23;;;5.10;;
13269;SDS011;6703;51.994;7.570;2023-06-22T07:21:21;8.15;;;4.82;;
13269;SDS011;6703;51.994;7.570;2023-06-22T07:23:49;9.80;;;5.55;;
13269;SDS011;6703;51.994;7.570;2023-06-22T07:26:16;10.30;;;5.03;;
13269;SDS011;6703;51.994;7.570;2023-06-22T07:28:44;11.88;;;5.35;;
13269;SDS011;6703;51.994;7.570;2023-06-22T07:31:12;8.63;;;5.27;;
13269;SDS011;6703;51.994;7.570;2023-06-22T07:33:40;10.68;;;5.20;;
13269;SDS011;6703;51.994;7.570;2023-06-22T07:36:08;11.13;;;5.53;;
13269;SDS011;6703;51.994;7.570;2023-06-22T07:38:37;10.63;;;4.90;;
13269;SDS011;6703;51.994;7.570;2023-06-22T07:41:05;10.85;;;5.03;;
13269;SDS011;6703;51.994;7.570;2023-06-22T07:43:33;9.55;;;5.15;;
13269;SDS011;6703;51.994;7.570;2023-06-22T07:46:03;11.38;;;5.57;;
13269;SDS011;6703;51.994;7.570;2023-06-22T07:48:31;10.47;;;4.90;;
13269;SDS011;6703;51.994;7.570;2023-06-22T07:50:59;11.18;;;4.90;;
13269;SDS011;6703;51.994;7.570;2023-06-22T07:53:28;9.65;;;5.32;;
13269;SDS011;6703;51.994;7.570;2023-06-22T07:55:58;10.23;;;5.53;;
13269;SDS011;6703;51.994;7.570;2023-06-22T07:58:25;8.17;;;5.13;;
13269;SDS011;6703;51.994;7.570;2023-06-22T08:00:53;10.77;;;5.95;;
13269;SDS011;6703;51.994;7.570;2023-06-22T08:03:22;12.20;;;5.30;;
13269;SDS011;6703;51.994;7.570;2023-06-22T08:05:50;11.38;;;5.43;;
13269;SDS011;6703;51.994;7.570;2023-06-22T08:08:18;13.38;;;5.80;;
13269;SDS011;6703;51.994;7.570;2023-06-22T08:10:46;15.02;;;5.57;;
13269;SDS011;6703;51.994;7.570;2023-06-22T08:13:15;10.40;;;5.20;;
13269;SDS011;6703;51.994;7.570;2023-06-22T08:15:46;9.63;;;5.75;;
13269;SDS011;6703;51.994;7.570;2023-06-22T08:18:25;11.88;;;5.72;;
13269;SDS011;6703;51.994;7.570;2023-06-22T08:20:53;8.63;;;5.32;;
13269;SDS011;6703;51.994;7.570;2023-06-22T08:23:20;11.77;;;5.55;;
13269;SDS011;6703;51.994;7.570;2023-06-22T08:25:48;10.95;;;5.60;;
13269;SDS011;6703;51.994;7.570;2023-06-22T08:31:03;8.73;;;5.30;;
13269;SDS011;6703;51.994;7.570;2023-06-22T08:33:31;11.88;;;5.78;;
13269;SDS011;6703;51.994;7.570;2023-06-22T08:35:59;12.10;;;5.63;;
13269;SDS011;6703;51.994;7.570;2023-06-22T08:38:27;11.20;;;5.78;;
13269;SDS011;6703;51.994;7.570;2023-06-22T08:40:55;13.10;;;6.28;;
13269;SDS011;6703;51.994;7.570;2023-06-22T08:43:25;14.87;;;6.33;;
13269;SDS011;6703;51.994;7.570;2023-06-22T08:45:53;13.10;;;7.03;;
13269;SDS011;6703;51.994;7.570;2023-06-22T08:48:22;17.23;;;7.47;;
13269;SDS011;6703;51.994;7.570;2023-06-22T08:50:50;18.77;;;7.75;;
13269;SDS011;6703;51.994;7.570;2023-06-22T08:53:17;12.50;;;6.10;;
13269;SDS011;6703;51.994;7.570;2023-06-22T08:55:46;9.75;;;6.00;;
13269;SDS011;6703;51.994;7.570;2023-06-22T08:58:13;11.38;;;6.32;;
13269;SDS011;6703;51.994;7.570;2023-06-22T09:00:41;14.02;;;6.20;;
13269;SDS011;6703;51.994;7.570;2023-06-22T09:03:09;9.43;;;5.55;;
13269;SDS011;6703;51.994;7.570;2023-06-22T09:05:39;11.98;;;5.95;;
13269;SDS011;6703;51.994;7.570;2023-06-22T09:08:06;12.73;;;7.10;;
13269;SDS011;6703;51.994;7.570;2023-06-22T09:10:34;11.30;;;6.50;;
13269;SDS011;6703;51.994;7.570;2023-06-22T09:13:02;13.30;;;6.55;;
13269;SDS011;6703;51.994;7.570;2023-06-22T09:15:30;10.07;;;6.30;;
13269;SDS011;6703;51.994;7.570;2023-06-22T09:17:58;11.07;;;6.50;;
13269;SDS011;6703;51.994;7.570;2023-06-22T09:20:26;16.58;;;6.82;;
13269;SDS011;6703;51.994;7.570;2023-06-22T09:22:56;12.13;;;5.87;;
13269;SDS011;6703;51.994;7.570;2023-06-22T09:25:24;9.93;;;6.40;;
13269;SDS011;6703;51.994;7.570;2023-06-22T09:27:52;9.85;;;5.93;;
13269;SDS011;6703;51.994;7.570;2023-06-22T09:30:20;11.32;;;6.22;;
13269;SDS011;6703;51.994;7.570;2023-06-22T09:32:48;12.15;;;6.70;;
13269;SDS011;6703;51.994;7.570;2023-06-22T09:35:15;12.80;;;6.82;;
13269;SDS011;6703;51.994;7.570;2023-06-22T09:37:44;12.75;;;7.53;;
13269;SDS011;6703;51.994;7.570;2023-06-22T09:40:13;14.02;;;7.95;;
13269;SDS011;6703;51.994;7.570;2023-06-22T09:42:43;17.27;;;9.93;;
13269;SDS011;6703;51.994;7.570;2023-06-22T09:45:11;13.60;;;7.45;;
13269;SDS011;6703;51.994;7.570;2023-06-22T09:47:39;14.70;;;7.35;;
13269;SDS011;6703;51.994;7.570;2023-06-22T09:50:07;14.57;;;8.13;;
13269;SDS011;6703;51.994;7.570;2023-06-22T09:52:36;20.73;;;10.98;;
13269;SDS011;6703;51.994;7.570;2023-06-22T09:55:15;15.35;;;7.25;;
13269;SDS011;6703;51.994;7.570;2023-06-22T09:57:43;12.07;;;7.22;;
13269;SDS011;6703;51.994;7.570;2023-06-22T10:00:11;17.95;;;9.77;;
13269;SDS011;6703;51.994;7.570;2023-06-22T10:02:41;12.80;;;7.38;;
13269;SDS011;6703;51.994;7.570;2023-06-22T10:05:10;19.35;;;9.75;;
13269;SDS011;6703;51.994;7.570;2023-06-22T10:07:38;10.50;;;7.05;;
13269;SDS011;6703;51.994;7.570;2023-06-22T10:10:09;14.73;;;8.20;;
13269;SDS011;6703;51.994;7.570;2023-06-22T10:12:41;13.88;;;7.30;;
13269;SDS011;6703;51.994;7.570;2023-06-22T10:15:12;15.05;;;7.60;;
13269;SDS011;6703;51.994;7.570;2023-06-22T10:17:40;11.68;;;7.40;;
13269;SDS011;6703;51.994;7.570;2023-06-22T10:20:08;11.20;;;7.00;;
13269;SDS011;6703;51.994;7.570;2023-06-22T10:22:39;13.60;;;8.00;;
13269;SDS011;6703;51.994;7.570;2023-06-22T10:25:07;12.07;;;7.38;;
13269;SDS011;6703;51.994;7.570;2023-06-22T10:27:36;14.82;;;7.32;;
13269;SDS011;6703;51.994;7.570;2023-06-22T10:30:18;13.85;;;7.22;;
13269;SDS011;6703;51.994;7.570;2023-06-22T10:32:46;14.33;;;6.97;;
13269;SDS011;6703;51.994;7.570;2023-06-22T10:35:14;11.02;;;6.55;;
13269;SDS011;6703;51.994;7.570;2023-06-22T10:37:43;14.90;;;6.78;;
13269;SDS011;6703;51.994;7.570;2023-06-22T10:40:11;13.48;;;7.28;;
13269;SDS011;6703;51.994;7.570;2023-06-22T10:42:41;14.47;;;7.10;;
13269;SDS011;6703;51.994;7.570;2023-06-22T10:45:12;12.88;;;7.00;;
13269;SDS011;6703;51.994;7.570;2023-06-22T10:47:41;10.47;;;6.60;;
13269;SDS011;6703;51.994;7.570;2023-06-22T10:50:09;11.88;;;6.38;;
13269;SDS011;6703;51.994;7.570;2023-06-22T10:52:38;12.25;;;7.28;;
13269;SDS011;6703;51.994;7.570;2023-06-22T10:55:06;14.03;;;7.00;;
13269;SDS011;6703;51.994;7.570;2023-06-22T10:57:34;13.13;;;7.47;;
13269;SDS011;6703;51.994;7.570;2023-06-22T11:00:03;12.33;;;7.07;;
13269;SDS011;6703;51.994;7.570;2023-06-22T11:02:33;13.13;;;6.83;;
13269;SDS011;6703;51.994;7.570;2023-06-22T11:05:02;13.38;;;7.15;;
13269;SDS011;6703;51.994;7.570;2023-06-22T11:07:31;15.23;;;7.30;;
13269;SDS011;6703;51.994;7.570;2023-06-22T11:10:00;12.00;;;7.07;;
13269;SDS011;6703;51.994;7.570;2023-06-22T11:12:28;12.13;;;6.82;;
13269;SDS011;6703;51.994;7.570;2023-06-22T11:14:56;12.93;;;6.95;;
13269;SDS011;6703;51.994;7.570;2023-06-22T11:17:25;10.90;;;6.80;;
13269;SDS011;6703;51.994;7.570;2023-06-22T11:19:53;9.48;;;6.90;;
13269;SDS011;6703;51.994;7.570;2023-06-22T11:22:22;12.88;;;7.03;;
13269;SDS011;6703;51.994;7.570;2023-06-22T11:24:50;12.68;;;6.55;;
13269;SDS011;6703;51.994;7.570;2023-06-22T11:27:17;14.98;;;6.50;;
13269;SDS011;6703;51.994;7.570;2023-06-22T11:29:45;11.13;;;6.63;;
13269;SDS011;6703;51.994;7.570;2023-06-22T11:32:13;11.67;;;5.80;;
13269;SDS011;6703;51.994;7.570;2023-06-22T11:34:41;9.57;;;5.68;;
13269;SDS011;6703;51.994;7.570;2023-06-22T11:37:08;11.45;;;6.03;;
13269;SDS011;6703;51.994;7.570;2023-06-22T11:39:37;10.35;;;6.00;;
13269;SDS011;6703;51.994;7.570;2023-06-22T11:42:18;12.07;;;6.22;;
13269;SDS011;6703;51.994;7.570;2023-06-22T11:44:46;8.87;;;5.57;;
13269;SDS011;6703;51.994;7.570;2023-06-22T11:47:13;11.60;;;5.80;;
13269;SDS011;6703;51.994;7.570;2023-06-22T11:49:41;10.60;;;5.43;;
13269;SDS011;6703;51.994;7.570;2023-06-22T11:52:09;13.95;;;5.63;;
13269;SDS011;6703;51.994;7.570;2023-06-22T11:54:38;11.13;;;6.15;;
13269;SDS011;6703;51.994;7.570;2023-06-22T11:57:06;12.85;;;6.38;;
13269;SDS011;6703;51.994;7.570;2023-06-22T11:59:34;8.98;;;6.07;;
13269;SDS011;6703;51.994;7.570;2023-06-22T12:02:02;10.45;;;6.22;;
13269;SDS011;6703;51.994;7.570;2023-06-22T12:04:33;14.30;;;7.30;;
13269;SDS011;6703;51.994;7.570;2023-06-22T12:09:26;10.33;;;6.13;;
13269;SDS011;6703;51.994;7.570;2023-06-22T12:11:55;22.77;;;10.23;;
13269;SDS011;6703;51.994;7.570;2023-06-22T12:14:23;10.57;;;6.72;;
13269;SDS011;6703;51.994;7.570;2023-06-22T12:16:51;13.70;;;6.80;;
13269;SDS011;6703;51.994;7.570;2023-06-22T12:19:18;12.73;;;7.30;;
13269;SDS011;6703;51.994;7.570;2023-06-22T12:21:46;14.65;;;6.43;;
13269;SDS011;6703;51.994;7.570;2023-06-22T12:24:14;15.45;;;7.20;;
13269;SDS011;6703;51.994;7.570;2023-06-22T12:26:42;10.70;;;6.78;;
13269;SDS011;6703;51.994;7.570;2023-06-22T12:29:11;11.52;;;6.65;;
13269;SDS011;6703;51.994;7.570;2023-06-22T12:31:39;10.90;;;6.87;;
13269;SDS011;6703;51.994;7.570;2023-06-22T12:34:10;13.35;;;7.30;;
13269;SDS011;6703;51.994;7.570;2023-06-22T12:36:38;19.13;;;7.63;;
13269;SDS011;6703;51.994;7.570;2023-06-22T12:39:05;16.05;;;9.48;;
13269;SDS011;6703;51.994;7.570;2023-06-22T12:41:33;16.35;;;8.73;;
13269;SDS011;6703;51.994;7.570;2023-06-22T12:44:01;15.40;;;8.15;;
13269;SDS011;6703;51.994;7.570;2023-06-22T12:46:31;17.42;;;8.98;;
13269;SDS011;6703;51.994;7.570;2023-06-22T12:49:03;14.40;;;7.88;;
13269;SDS011;6703;51.994;7.570;2023-06-22T12:51:31;18.10;;;9.82;;
13269;SDS011;6703;51.994;7.570;2023-06-22T12:54:00;14.05;;;8.00;;
13269;SDS011;6703;51.994;7.570;2023-06-22T12:56:28;20.25;;;8.57;;
13269;SDS011;6703;51.994;7.570;2023-06-22T12:58:55;19.90;;;8.45;;
13269;SDS011;6703;51.994;7.570;2023-06-22T13:01:23;16.75;;;9.20;;
13269;SDS011;6703;51.994;7.570;2023-06-22T13:03:53;24.65;;;9.85;;
13269;SDS011;6703;51.994;7.570;2023-06-22T13:06:20;28.67;;;9.88;;
13269;SDS011;6703;51.994;7.570;2023-06-22T13:08:48;20.75;;;11.55;;
13269;SDS011;6703;51.994;7.570;2023-06-22T13:11:19;21.23;;;11.13;;
13269;SDS011;6703;51.994;7.570;2023-06-22T13:13:46;26.27;;;11.57;;
13269;SDS011;6703;51.994;7.570;2023-06-22T13:16:14;23.48;;;11.25;;
13269;SDS011;6703;51.994;7.570;2023-06-22T13:18:42;28.83;;;13.32;;
13269;SDS011;6703;51.994;7.570;2023-06-22T13:21:11;26.92;;;13.80;;
13269;SDS011;6703;51.994;7.570;2023-06-22T13:23:40;29.73;;;13.15;;
13269;SDS011;6703;51.994;7.570;2023-06-22T13:26:08;24.63;;;14.07;;
13269;SDS011;6703;51.994;7.570;2023-06-22T13:28:35;29.10;;;14.45;;
13269;SDS011;6703;51.994;7.570;2023-06-22T13:31:03;27.20;;;14.40;;
13269;SDS011;6703;51.994;7.570;2023-06-22T13:33:31;38.60;;;20.42;;
13269;SDS011;6703;51.994;7.570;2023-06-22T13:35:59;29.70;;;14.93;;
13269;SDS011;6703;51.994;7.570;2023-06-22T13:38:30;32.45;;;15.93;;
13269;SDS011;6703;51.994;7.570;2023-06-22T13:40:58;32.88;;;15.60;;
13269;SDS011;6703;51.994;7.570;2023-06-22T13:43:26;25.50;;;14.73;;
13269;SDS011;6703;51.994;7.570;2023-06-22T13:45:54;28.10;;;14.52;;
13269;SDS011;6703;51.994;7.570;2023-06-22T13:48:22;29.92;;;15.15;;
13269;SDS011;6703;51.994;7.570;2023-06-22T13:50:52;27.20;;;14.23;;
13269;SDS011;6703;51.994;7.570;2023-06-22T13:53:20;22.10;;;12.95;;
13269;SDS011;6703;51.994;7.570;2023-06-22T13:55:49;30.80;;;13.70;;
13269;SDS011;6703;51.994;7.570;2023-06-22T13:58:17;22.08;;;13.57;;
13269;SDS011;6703;51.994;7.570;2023-06-22T14:03:59;23.80;;;13.90;;
13269;SDS011;6703;51.994;7.570;2023-06-22T14:06:29;24.13;;;13.85;;
13269;SDS011;6703;51.994;7.570;2023-06-22T14:08:56;26.80;;;13.00;;
13269;SDS011;6703;51.994;7.570;2023-06-22T14:11:25;23.77;;;13.43;;
13269;SDS011;6703;51.994;7.570;2023-06-22T14:13:53;27.35;;;14.00;;
13269;SDS011;6703;51.994;7.570;2023-06-22T14:16:21;23.80;;;13.40;;
13269;SDS011;6703;51.994;7.570;2023-06-22T14:18:49;30.40;;;14.80;;
13269;SDS011;6703;51.994;7.570;2023-06-22T14:21:19;26.15;;;13.90;;
13269;SDS011;6703;51.994;7.570;2023-06-22T14:23:46;26.30;;;13.75;;
13269;SDS011;6703;51.994;7.570;2023-06-22T14:26:15;22.23;;;12.77;;
13269;SDS011;6703;51.994;7.570;2023-06-22T14:28:46;24.83;;;12.18;;
13269;SDS011;6703;51.994;7.570;2023-06-22T14:31:15;20.88;;;12.13;;
13269;SDS011;6703;51.994;7.570;2023-06-22T14:33:45;23.23;;;12.43;;
13269;SDS011;6703;51.994;7.570;2023-06-22T14:36:14;24.83;;;13.85;;
13269;SDS011;6703;51.994;7.570;2023-06-22T14:38:42;26.90;;;13.67;;
13269;SDS011;6703;51.994;7.570;2023-06-22T14:41:10;32.17;;;16.13;;
13269;SDS011;6703;51.994;7.570;2023-06-22T14:43:43;30.25;;;14.90;;
13269;SDS011;6703;51.994;7.570;2023-06-22T14:46:13;27.20;;;15.00;;
13269;SDS011;6703;51.994;7.570;2023-06-22T14:48:41;26.77;;;14.10;;
13269;SDS011;6703;51.994;7.570;2023-06-22T14:51:09;28.40;;;15.32;;
13269;SDS011;6703;51.994;7.570;2023-06-22T14:53:42;28.50;;;14.30;;
13269;SDS011;6703;51.994;7.570;2023-06-22T14:56:10;23.25;;;12.48;;
13269;SDS011;6703;51.994;7.570;2023-06-22T14:58:39;23.67;;;11.88;;
13269;SDS011;6703;51.994;7.570;2023-06-22T15:01:23;16.13;;;9.23;;
13269;SDS011;6703;51.994;7.570;2023-06-22T15:03:51;16.92;;;9.45;;
13269;SDS011;6703;51.994;7.570;2023-06-22T15:06:19;17.30;;;9.25;;
13269;SDS011;6703;51.994;7.570;2023-06-22T15:08:47;15.93;;;9.30;;